aviador You're here:

KFOK Decoded Metar

WEST HAMPTON BEACH in NY, USA
Report Time2017-11-21 01:53:00
UTC Time2017-11-21 02:35:02
Flight Rules vfr VFR
Wind260° at 10 kt
W.Decomp.*RWY 24: 8.4 kt HW 5.4 kt RCW
RWY 33: 5.4 kt HW 8.4 kt LCW
RWY 19: 1.2 kt HW 9.9 kt RCW
W.Rank260° ranks 25
Current wind is above 260° avg. (7.9)
Visibility9999 m
Phenomena:N/A
Clouds:N/A
Expected CloudBase > 3,200 ft AGL from Temp-Dew spread
CeilingNone
Temp05°C (ISA -10)
Dew Point-3°C (57% RH)
AAT-1.0°C
QNH1020 hPa
Density Alt-1,243 ft
Elevation108 ft
Report Wrong Elevation
Raw Report
METAR KFOK 210153Z 26010KT 10SM CLR 05/M03 A3013 RMK AO2 SLP202 T00501028=

Extra information for KFOK:More info

Metar Taf Metar & Taf Last 4 Metars F.Rules Stats Wind Profile Meteogram Temp Stats Airport Information Weather charts Add Link Nearby VenuesMetar ALERT Operation Metar Decoded Social comments

AIRNAV info for KFOK